Time;durP1;ratioP1;P1;durP2;ratioP2;P2;SDS_P1;SDS_P2;PMS_P1;PMS_P2;Temp;Humidity;BMP_temperature;BMP_pressure;BME280_temperature;BME280_humidity;BME280_pressure;Samples;Min_cycle;Max_cycle;Signal;HPM_P1;HPM_P2
2021/06/06 00:00:31;;;;;;;4.03;1.80;;;14.40;99.90;;;;;;4367506;32;20087;-70
2021/06/06 00:02:57;;;;;;;3.72;2.42;;;14.40;99.90;;;;;;4351930;32;20070;-68
2021/06/06 00:05:30;;;;;;;4.03;2.30;;;14.40;99.90;;;;;;4350197;33;20062;-70
2021/06/06 00:07:57;;;;;;;4.53;2.20;;;14.40;99.90;;;;;;4339791;33;20068;-70
2021/06/06 00:10:23;;;;;;;7.72;2.40;;;14.40;99.90;;;;;;4324430;33;20082;-71
2021/06/06 00:12:49;;;;;;;3.65;2.30;;;14.40;99.90;;;;;;4324643;33;20094;-69
2021/06/06 00:15:16;;;;;;;2.65;2.03;;;14.30;99.90;;;;;;4322822;33;20069;-69
2021/06/06 00:17:43;;;;;;;8.05;2.22;;;14.40;99.90;;;;;;4321974;33;20122;-69
2021/06/06 00:20:10;;;;;;;4.47;2.50;;;14.40;99.90;;;;;;4334087;33;20097;-70
2021/06/06 00:22:38;;;;;;;3.70;2.20;;;14.50;99.90;;;;;;4328880;33;20514;-68
2021/06/06 00:25:07;;;;;;;3.83;2.30;;;14.50;99.90;;;;;;4343083;33;20160;-68
2021/06/06 00:27:33;;;;;;;5.10;2.17;;;14.50;99.90;;;;;;4308662;33;20059;-69
2021/06/06 00:30:00;;;;;;;3.70;1.95;;;14.50;99.90;;;;;;4330733;33;20086;-69
2021/06/06 00:32:27;;;;;;;5.40;2.30;;;14.60;99.90;;;;;;4339382;33;20501;-69
2021/06/06 00:34:53;;;;;;;4.30;2.62;;;14.60;99.90;;;;;;4343362;33;20067;-68
2021/06/06 00:37:19;;;;;;;3.95;2.40;;;14.60;99.90;;;;;;4319128;33;20099;-68
2021/06/06 00:39:45;;;;;;;5.40;3.45;;;14.40;99.90;;;;;;4335196;33;20071;-69
2021/06/06 00:42:12;;;;;;;4.97;2.25;;;14.50;99.90;;;;;;4331890;33;20069;-69
2021/06/06 00:44:38;;;;;;;5.65;2.40;;;14.60;99.90;;;;;;4351310;32;20073;-68
2021/06/06 00:47:05;;;;;;;3.80;2.28;;;14.60;99.90;;;;;;4345516;33;20140;-70
2021/06/06 00:49:31;;;;;;;6.57;2.12;;;14.40;99.90;;;;;;4348138;32;20075;-69
2021/06/06 00:51:58;;;;;;;5.70;2.30;;;14.30;99.90;;;;;;4347100;32;20502;-69
2021/06/06 00:54:27;;;;;;;3.60;2.42;;;14.20;99.90;;;;;;4321848;33;20074;-67
2021/06/06 00:57:09;;;;;;;7.03;2.40;;;14.20;99.90;;;;;;4331534;33;20085;-68
2021/06/06 00:59:37;;;;;;;4.50;2.30;;;14.20;99.90;;;;;;4330059;33;20074;-69
2021/06/06 01:02:06;;;;;;;7.32;2.35;;;14.40;99.90;;;;;;4319102;33;20078;-69
2021/06/06 01:04:32;;;;;;;5.78;2.10;;;14.30;99.90;;;;;;4305995;33;20074;-69
2021/06/06 01:06:58;;;;;;;10.82;2.20;;;14.40;99.90;;;;;;4334867;32;20083;-69
2021/06/06 01:09:25;;;;;;;2.85;2.10;;;14.20;99.90;;;;;;4360453;32;20090;-67
2021/06/06 01:12:07;;;;;;;3.60;2.15;;;14.10;99.90;;;;;;4337486;32;20071;-68
2021/06/06 01:14:48;;;;;;;5.28;2.33;;;14.00;99.90;;;;;;4342116;32;20535;-68
2021/06/06 01:17:34;;;;;;;4.95;2.55;;;14.00;99.90;;;;;;4322714;32;20063;-69
2021/06/06 01:20:25;;;;;;;5.55;2.45;;;13.90;99.90;;;;;;4334183;33;20078;-67
2021/06/06 01:23:14;;;;;;;6.22;2.58;;;13.90;99.90;;;;;;4355692;32;20071;-68
2021/06/06 01:25:45;;;;;;;5.07;2.87;;;13.80;99.90;;;;;;4354360;32;20073;-70
2021/06/06 01:28:44;;;;;;;7.20;3.20;;;13.70;99.90;;;;;;4340973;32;20083;-67
2021/06/06 01:31:11;;;;;;;9.63;3.70;;;13.60;99.90;;;;;;4323667;33;20082;-67
2021/06/06 01:33:57;;;;;;;9.23;4.35;;;13.50;99.90;;;;;;4336275;32;20461;-68
2021/06/06 01:36:35;;;;;;;10.13;4.28;;;13.50;99.90;;;;;;4322012;33;20516;-69
2021/06/06 01:39:13;;;;;;;9.13;4.30;;;13.60;99.90;;;;;;4340656;32;20460;-68
2021/06/06 01:41:41;;;;;;;11.85;4.93;;;13.80;99.90;;;;;;4333736;33;20478;-70
2021/06/06 01:44:11;;;;;;;11.68;5.20;;;13.70;99.90;;;;;;4345991;32;20105;-69
2021/06/06 01:46:44;;;;;;;10.80;4.82;;;13.70;99.90;;;;;;4341894;32;20166;-69
2021/06/06 01:49:11;;;;;;;12.15;5.87;;;13.80;99.90;;;;;;4321952;33;20071;-67
2021/06/06 01:51:41;;;;;;;15.38;5.90;;;13.70;99.90;;;;;;4325996;32;20113;-69
2021/06/06 01:54:09;;;;;;;11.88;5.37;;;13.80;99.90;;;;;;4335310;32;20098;-68
2021/06/06 01:56:37;;;;;;;10.50;5.12;;;13.80;99.90;;;;;;4341650;32;20157;-70
2021/06/06 01:59:16;;;;;;;10.45;5.80;;;13.80;99.90;;;;;;4333317;32;20107;-67
2021/06/06 02:01:43;;;;;;;13.75;6.05;;;13.80;99.90;;;;;;4332769;33;20070;-69
2021/06/06 02:04:09;;;;;;;10.85;5.85;;;13.80;99.90;;;;;;4341425;32;20513;-69
2021/06/06 02:07:00;;;;;;;9.20;5.05;;;13.80;99.90;;;;;;4345715;32;20518;-68
2021/06/06 02:09:30;;;;;;;11.85;6.10;;;13.80;99.90;;;;;;4325356;32;20147;-69
2021/06/06 02:12:00;;;;;;;14.27;6.05;;;13.90;99.90;;;;;;4320300;32;20074;-68
2021/06/06 02:14:30;;;;;;;10.27;5.85;;;13.90;99.90;;;;;;4346812;32;20090;-68
2021/06/06 02:16:59;;;;;;;10.50;5.12;;;13.90;99.90;;;;;;4335172;32;20494;-68
2021/06/06 02:19:27;;;;;;;10.30;6.10;;;14.10;99.90;;;;;;4339383;32;20149;-69
2021/06/06 02:21:58;;;;;;;12.70;6.80;;;14.20;99.90;;;;;;4347088;32;20151;-68
2021/06/06 02:24:24;;;;;;;11.80;6.85;;;14.20;99.90;;;;;;4321334;32;20125;-69
2021/06/06 02:27:06;;;;;;;13.70;6.68;;;14.40;99.90;;;;;;4336643;32;20075;-68
2021/06/06 02:29:46;;;;;;;11.38;8.07;;;14.50;99.90;;;;;;4325503;32;20560;-68
2021/06/06 02:32:24;;;;;;;13.60;7.18;;;14.50;99.90;;;;;;4345065;32;20062;-69
2021/06/06 02:35:15;;;;;;;10.45;6.75;;;14.60;99.90;;;;;;4350299;32;20501;-68
2021/06/06 02:38:17;;;;;;;9.30;5.40;;;14.70;99.90;;;;;;4330627;32;20078;-69
2021/06/06 02:41:04;;;;;;;7.75;5.32;;;15.00;99.90;;;;;;4343133;32;20065;-70
2021/06/06 02:43:43;;;;;;;8.93;5.22;;;15.10;99.90;;;;;;4322304;32;20090;-69
2021/06/06 02:46:09;;;;;;;7.35;4.65;;;15.30;99.90;;;;;;4331710;32;20185;-68
2021/06/06 02:48:44;;;;;;;5.50;3.25;;;15.40;99.90;;;;;;4334795;32;20176;-69
2021/06/06 02:51:14;;;;;;;7.53;3.00;;;15.40;99.90;;;;;;4325931;32;20081;-68
2021/06/06 02:53:58;;;;;;;4.53;2.37;;;15.50;99.90;;;;;;4335255;32;20161;-68
2021/06/06 02:56:38;;;;;;;4.62;2.50;;;15.60;99.90;;;;;;4344971;32;20078;-67
2021/06/06 02:59:16;;;;;;;4.25;2.40;;;15.60;99.90;;;;;;4340078;32;20059;-67
2021/06/06 03:01:55;;;;;;;5.78;2.22;;;15.90;99.90;;;;;;4337993;32;20163;-69
2021/06/06 03:04:23;;;;;;;3.03;2.20;;;16.00;99.90;;;;;;4359112;32;20583;-69
2021/06/06 03:07:03;;;;;;;5.75;2.20;;;16.30;99.90;;;;;;4337779;32;20141;-69
2021/06/06 03:09:29;;;;;;;3.25;2.42;;;16.50;99.90;;;;;;4337942;32;20083;-69
2021/06/06 03:11:56;;;;;;;3.90;2.25;;;16.50;99.90;;;;;;4332510;32;20085;-68
2021/06/06 03:14:24;;;;;;;3.78;2.30;;;16.50;99.90;;;;;;4343843;32;20442;-70
2021/06/06 03:17:21;;;;;;;6.30;2.00;;;16.30;99.90;;;;;;4335688;32;20082;-69
2021/06/06 03:19:50;;;;;;;3.45;2.10;;;16.20;99.90;;;;;;4349718;32;20085;-68
2021/06/06 03:22:26;;;;;;;3.65;2.28;;;16.50;99.90;;;;;;4322904;32;20066;-68
2021/06/06 03:24:58;;;;;;;5.20;2.50;;;16.40;99.90;;;;;;4359061;32;20063;-68
2021/06/06 03:27:27;;;;;;;5.72;2.12;;;16.30;99.90;;;;;;4336822;32;20171;-69
2021/06/06 03:30:08;;;;;;;3.70;1.95;;;16.40;99.90;;;;;;4341979;32;20067;-67
2021/06/06 03:32:38;;;;;;;8.35;3.58;;;16.40;99.90;;;;;;4349453;32;20612;-68
2021/06/06 03:35:06;;;;;;;5.70;2.30;;;16.40;99.90;;;;;;4350124;32;20097;-68
2021/06/06 03:37:32;;;;;;;5.05;2.40;;;16.40;99.90;;;;;;4344679;32;20160;-69
2021/06/06 03:39:58;;;;;;;4.47;2.50;;;16.30;99.90;;;;;;4341930;32;20085;-68
2021/06/06 03:42:24;;;;;;;5.68;2.72;;;16.40;99.90;;;;;;4319174;32;20087;-68
2021/06/06 03:44:51;;;;;;;4.47;2.45;;;16.30;99.90;;;;;;4336780;32;20066;-69
2021/06/06 03:47:17;;;;;;;5.60;2.60;;;16.50;99.90;;;;;;4326323;32;20066;-68
2021/06/06 03:49:43;;;;;;;8.10;3.05;;;16.60;99.90;;;;;;4349422;32;20063;-67
2021/06/06 03:52:09;;;;;;;5.40;2.25;;;16.70;99.90;;;;;;4343084;32;20267;-70
2021/06/06 03:54:36;;;;;;;4.07;2.28;;;16.70;99.90;;;;;;4345712;32;20102;-69
2021/06/06 03:57:02;;;;;;;8.18;2.42;;;16.80;99.90;;;;;;4335817;32;20063;-69
2021/06/06 03:59:29;;;;;;;4.87;2.55;;;16.90;99.90;;;;;;4339199;32;20058;-68
2021/06/06 04:01:55;;;;;;;5.53;2.17;;;16.90;99.90;;;;;;4348959;32;20490;-70
2021/06/06 04:04:21;;;;;;;5.47;2.17;;;17.10;99.90;;;;;;4356423;32;20638;-69
2021/06/06 04:06:47;;;;;;;7.22;2.90;;;17.10;99.90;;;;;;4358680;32;20525;-68
2021/06/06 04:09:14;;;;;;;8.35;3.22;;;17.20;99.90;;;;;;4337108;32;20073;-69
2021/06/06 04:11:40;;;;;;;6.62;2.85;;;17.50;99.90;;;;;;4330327;32;20191;-70
2021/06/06 04:14:06;;;;;;;3.78;2.67;;;17.40;99.90;;;;;;4350964;32;20059;-69
2021/06/06 04:16:33;;;;;;;3.58;2.60;;;17.30;99.90;;;;;;4336948;32;20156;-67
2021/06/06 04:18:59;;;;;;;4.50;3.00;;;17.20;99.90;;;;;;4362613;32;20170;-70
2021/06/06 04:21:28;;;;;;;5.00;3.12;;;17.30;99.90;;;;;;4361230;32;20571;-69
2021/06/06 04:23:55;;;;;;;5.43;2.60;;;17.40;99.90;;;;;;4331590;32;20659;-67
2021/06/06 04:26:21;;;;;;;3.78;2.45;;;17.60;99.90;;;;;;4351370;32;20505;-69
2021/06/06 04:28:48;;;;;;;7.22;2.65;;;18.20;99.90;;;;;;4335462;32;20070;-68
2021/06/06 04:31:15;;;;;;;4.35;2.50;;;18.40;99.90;;;;;;4336562;32;20161;-70
2021/06/06 04:33:41;;;;;;;7.85;2.62;;;18.40;99.90;;;;;;4329802;32;20098;-70
2021/06/06 04:36:08;;;;;;;6.62;2.92;;;18.90;99.90;;;;;;4350871;32;20113;-69
2021/06/06 04:38:34;;;;;;;6.85;2.58;;;18.20;99.90;;;;;;4324205;32;20164;-70
2021/06/06 04:41:04;;;;;;;8.15;2.58;;;18.10;99.90;;;;;;4337863;32;20077;-69
2021/06/06 04:43:30;;;;;;;6.78;2.83;;;17.80;99.90;;;;;;4338866;32;20176;-69
2021/06/06 04:45:57;;;;;;;7.40;3.40;;;18.00;99.90;;;;;;4348042;32;20081;-70
2021/06/06 04:48:37;;;;;;;6.25;3.03;;;18.90;99.90;;;;;;4334286;32;20094;-69
2021/06/06 04:51:07;;;;;;;7.20;2.97;;;19.90;99.90;;;;;;4364536;32;20481;-69
2021/06/06 04:53:34;;;;;;;9.50;3.87;;;19.90;99.90;;;;;;4348336;32;20063;-69
2021/06/06 04:56:00;;;;;;;7.18;3.40;;;19.40;99.90;;;;;;4343364;32;20077;-69
2021/06/06 04:58:28;;;;;;;5.90;3.53;;;19.70;99.90;;;;;;4347745;32;20139;-70
2021/06/06 05:00:54;;;;;;;5.78;3.30;;;20.50;99.90;;;;;;4324644;32;20066;-70
2021/06/06 05:03:21;;;;;;;8.10;3.15;;;21.70;94.90;;;;;;4337911;32;20485;-70
2021/06/06 05:05:48;;;;;;;7.25;3.33;;;22.00;92.10;;;;;;4352852;32;20154;-70
2021/06/06 05:08:15;;;;;;;5.50;2.72;;;22.10;90.40;;;;;;4347936;32;20079;-69
2021/06/06 05:10:43;;;;;;;6.03;2.80;;;21.20;92.10;;;;;;4339563;32;20108;-70
2021/06/06 05:13:09;;;;;;;10.23;3.53;;;20.80;95.10;;;;;;4365918;32;20157;-69
2021/06/06 05:15:36;;;;;;;7.00;3.83;;;20.90;94.80;;;;;;4335621;32;20082;-70
2021/06/06 05:18:02;;;;;;;11.38;4.75;;;20.90;93.90;;;;;;4343079;32;20066;-69
2021/06/06 05:20:33;;;;;;;9.07;5.12;;;21.30;91.10;;;;;;4323862;32;20085;-70
2021/06/06 05:22:59;;;;;;;12.95;7.25;;;22.40;82.50;;;;;;4348593;32;20077;-70
2021/06/06 05:25:26;;;;;;;14.73;8.00;;;22.10;83.30;;;;;;4347849;32;20106;-69
2021/06/06 05:27:52;;;;;;;15.63;8.02;;;22.00;78.50;;;;;;4326862;32;20078;-69
2021/06/06 05:30:25;;;;;;;14.07;6.93;;;21.90;81.10;;;;;;4342249;32;20460;-68
2021/06/06 05:32:52;;;;;;;10.90;6.22;;;22.70;77.30;;;;;;4346263;32;20477;-67
2021/06/06 05:35:19;;;;;;;11.45;7.30;;;23.10;74.00;;;;;;4331863;32;20055;-70
2021/06/06 05:37:45;;;;;;;15.57;7.95;;;23.20;73.80;;;;;;4361575;32;20093;-71
2021/06/06 05:40:12;;;;;;;15.00;8.82;;;23.50;70.10;;;;;;4335288;32;20558;-69
2021/06/06 05:42:38;;;;;;;19.35;11.05;;;23.30;70.50;;;;;;4354453;32;20058;-69
2021/06/06 05:45:05;;;;;;;22.13;13.35;;;23.10;66.50;;;;;;4360813;32;20094;-71
2021/06/06 05:47:31;;;;;;;24.15;13.23;;;21.40;86.40;;;;;;4335561;32;20082;-68
2021/06/06 05:49:58;;;;;;;21.60;11.68;;;20.70;92.80;;;;;;4342651;32;20054;-70
2021/06/06 05:52:24;;;;;;;18.65;10.48;;;20.80;93.80;;;;;;4362512;32;20082;-70
2021/06/06 05:54:50;;;;;;;22.98;12.48;;;21.00;91.40;;;;;;4347874;32;20066;-69
2021/06/06 05:57:16;;;;;;;23.12;12.80;;;20.60;92.40;;;;;;4347165;32;20090;-69
2021/06/06 05:59:42;;;;;;;24.00;12.27;;;20.30;95.60;;;;;;4350831;32;20085;-70
2021/06/06 06:02:08;;;;;;;17.15;9.77;;;20.70;93.00;;;;;;4343903;32;20076;-70
2021/06/06 06:04:35;;;;;;;19.55;9.80;;;21.10;92.30;;;;;;4335287;32;20069;-70
2021/06/06 06:07:01;;;;;;;19.75;10.27;;;22.50;80.10;;;;;;4348680;32;20156;-70
2021/06/06 06:09:27;;;;;;;19.15;9.80;;;22.50;73.50;;;;;;4359748;32;20178;-67
2021/06/06 06:11:53;;;;;;;20.90;9.10;;;21.90;80.50;;;;;;4317596;32;20179;-69
2021/06/06 06:14:19;;;;;;;16.48;8.65;;;21.70;82.60;;;;;;4334736;32;20067;-70
2021/06/06 06:16:45;;;;;;;13.15;7.05;;;22.50;73.80;;;;;;4345160;32;20086;-70
2021/06/06 06:19:12;;;;;;;11.48;7.35;;;23.70;69.10;;;;;;4348394;32;20078;-70
2021/06/06 06:21:39;;;;;;;10.43;6.07;;;23.60;64.60;;;;;;4339091;32;20096;-70
2021/06/06 06:24:06;;;;;;;13.85;6.80;;;23.80;64.60;;;;;;4347542;32;20516;-69
2021/06/06 06:26:33;;;;;;;14.43;8.05;;;24.50;59.40;;;;;;4358172;32;20084;-70
2021/06/06 06:28:59;;;;;;;12.23;6.95;;;23.20;66.00;;;;;;4337191;32;20513;-69
2021/06/06 06:31:25;;;;;;;11.10;5.10;;;22.60;70.30;;;;;;4350114;32;20150;-69
2021/06/06 06:33:52;;;;;;;14.57;6.12;;;22.70;71.60;;;;;;4332599;32;20585;-69
2021/06/06 06:36:19;;;;;;;8.38;5.03;;;23.10;69.20;;;;;;4360190;32;20062;-69
2021/06/06 06:38:52;;;;;;;7.05;5.53;;;22.70;69.90;;;;;;4350012;32;20070;-67
2021/06/06 06:41:24;;;;;;;11.23;5.15;;;22.50;70.90;;;;;;4352184;32;20090;-69
2021/06/06 06:43:50;;;;;;;9.88;5.35;;;22.80;67.90;;;;;;4342581;32;20074;-69
2021/06/06 06:46:17;;;;;;;6.18;4.18;;;23.30;71.80;;;;;;4352648;32;20074;-69
2021/06/06 06:48:43;;;;;;;8.23;4.62;;;23.50;66.00;;;;;;4364893;32;20090;-69
2021/06/06 06:51:09;;;;;;;9.30;5.10;;;23.60;64.00;;;;;;4352590;32;20079;-69
2021/06/06 06:53:36;;;;;;;13.88;6.32;;;22.90;65.30;;;;;;4349664;32;20090;-70
2021/06/06 06:56:03;;;;;;;10.57;5.45;;;22.50;66.70;;;;;;4345540;32;20137;-68
2021/06/06 06:58:29;;;;;;;10.85;5.30;;;23.10;66.80;;;;;;4345794;32;20153;-69
2021/06/06 07:00:55;;;;;;;12.00;5.57;;;23.60;63.80;;;;;;4353115;32;20164;-70
2021/06/06 07:03:28;;;;;;;10.18;6.68;;;23.80;63.90;;;;;;4350404;32;20085;-70
2021/06/06 07:05:55;;;;;;;12.25;6.72;;;23.10;62.80;;;;;;4332638;32;20067;-70
2021/06/06 07:08:29;;;;;;;13.13;6.82;;;22.60;61.40;;;;;;4352381;32;20077;-69
2021/06/06 07:10:55;;;;;;;9.48;5.32;;;22.80;62.00;;;;;;4362920;32;20063;-69
2021/06/06 07:13:22;;;;;;;9.40;5.85;;;23.60;57.50;;;;;;4349056;32;20512;-70
2021/06/06 07:15:48;;;;;;;8.07;5.25;;;22.60;59.60;;;;;;4331572;32;20056;-69
2021/06/06 07:18:20;;;;;;;10.10;6.53;;;23.30;60.90;;;;;;4337644;32;20426;-69
2021/06/06 07:20:50;;;;;;;8.45;4.65;;;23.30;54.50;;;;;;4335608;32;20058;-69
2021/06/06 07:23:17;;;;;;;6.57;3.80;;;23.60;55.90;;;;;;4325700;32;20074;-70
2021/06/06 07:25:44;;;;;;;5.65;3.83;;;23.80;56.40;;;;;;4318905;32;20106;-69
2021/06/06 07:28:13;;;;;;;5.35;3.92;;;23.80;53.60;;;;;;4348839;32;20437;-70
2021/06/06 07:31:00;;;;;;;;;;;;;;;;;;;;;
2021/06/06 07:33:35;;;;;;;5.57;4.00;;;25.00;50.90;;;;;;3824761;37;20082;-70
2021/06/06 07:36:03;;;;;;;8.38;4.50;;;25.00;49.30;;;;;;4378287;32;20485;-69
2021/06/06 07:38:29;;;;;;;5.95;4.35;;;24.60;49.60;;;;;;4342587;32;20088;-69
2021/06/06 07:40:56;;;;;;;9.43;4.50;;;24.60;51.00;;;;;;4387761;32;20084;-70
2021/06/06 07:43:22;;;;;;;10.55;6.68;;;24.70;53.80;;;;;;4372283;32;20591;-70
2021/06/06 07:45:49;;;;;;;9.20;5.75;;;23.20;68.80;;;;;;4365220;32;20082;-69
2021/06/06 07:48:15;;;;;;;5.45;3.95;;;23.40;69.90;;;;;;4365867;32;20456;-70
2021/06/06 07:50:44;;;;;;;6.62;4.07;;;23.90;73.10;;;;;;4351292;32;20066;-69
2021/06/06 07:53:11;;;;;;;6.80;3.30;;;23.50;70.70;;;;;;4366158;32;20522;-69
2021/06/06 07:55:37;;;;;;;4.18;3.00;;;23.40;72.00;;;;;;4358459;32;20105;-70
2021/06/06 07:58:04;;;;;;;6.50;2.83;;;23.40;72.00;;;;;;4365585;32;20152;-69
2021/06/06 08:00:36;;;;;;;6.37;3.10;;;23.30;74.60;;;;;;4356745;32;20065;-69
2021/06/06 08:03:04;;;;;;;5.03;2.95;;;23.50;71.60;;;;;;4338038;32;20497;-69
2021/06/06 08:05:30;;;;;;;4.37;2.72;;;23.80;73.90;;;;;;4367332;32;20090;-69
2021/06/06 08:07:56;;;;;;;4.37;2.50;;;23.50;71.90;;;;;;4370465;32;20069;-70
2021/06/06 08:10:24;;;;;;;6.03;2.97;;;23.10;76.20;;;;;;4372365;32;20105;-69
2021/06/06 08:12:50;;;;;;;4.25;2.55;;;23.00;74.90;;;;;;4337711;32;20086;-69
2021/06/06 08:15:17;;;;;;;5.68;2.42;;;23.60;77.00;;;;;;4371774;32;20067;-70
2021/06/06 08:17:43;;;;;;;4.72;2.60;;;23.90;72.80;;;;;;4365912;32;20091;-70
2021/06/06 08:20:15;;;;;;;4.12;3.00;;;23.40;73.10;;;;;;4381539;32;20448;-69
2021/06/06 08:22:41;;;;;;;4.10;2.70;;;23.40;73.80;;;;;;4362469;32;20480;-69
2021/06/06 08:25:10;;;;;;;5.05;2.10;;;23.70;72.40;;;;;;4364521;32;20573;-70
2021/06/06 08:27:36;;;;;;;5.47;2.53;;;22.90;71.40;;;;;;4359176;32;20455;-69
2021/06/06 08:30:17;;;;;;;3.15;2.40;;;23.20;65.80;;;;;;4358232;32;20073;-69
2021/06/06 08:32:43;;;;;;;3.67;2.30;;;23.00;64.00;;;;;;4353953;32;20163;-69
2021/06/06 08:35:10;;;;;;;6.43;2.67;;;23.70;61.70;;;;;;4357749;32;20427;-69
2021/06/06 08:37:36;;;;;;;5.80;2.30;;;24.10;61.20;;;;;;4366926;32;20100;-69
2021/06/06 08:40:06;;;;;;;3.15;2.10;;;23.90;58.70;;;;;;4354540;32;20174;-69
2021/06/06 08:42:32;;;;;;;3.92;2.47;;;23.30;59.50;;;;;;4345909;32;20527;-70
2021/06/06 08:45:29;;;;;;;3.92;2.30;;;23.60;60.20;;;;;;4365285;32;20065;-69
2021/06/06 08:47:57;;;;;;;6.00;2.37;;;24.00;58.30;;;;;;4329306;32;20061;-69
2021/06/06 08:50:30;;;;;;;3.42;1.95;;;23.40;58.60;;;;;;4359517;32;20081;-70
2021/06/06 08:53:22;;;;;;;2.72;1.92;;;23.90;59.00;;;;;;4362103;32;20069;-70
2021/06/06 08:56:15;;;;;;;2.53;1.90;;;23.50;61.40;;;;;;4364289;32;20141;-70
2021/06/06 08:59:22;;;;;;;4.07;2.10;;;24.40;58.80;;;;;;4334006;32;20059;-70
2021/06/06 09:02:35;;;;;;;4.82;2.10;;;24.40;54.60;;;;;;4341466;32;20491;-69
2021/06/06 09:05:08;;;;;;;4.60;1.90;;;23.50;58.10;;;;;;4371323;32;20069;-70
2021/06/06 09:07:35;;;;;;;3.17;1.77;;;24.00;56.50;;;;;;4348274;32;20171;-70
2021/06/06 09:10:11;;;;;;;3.47;2.00;;;24.60;53.50;;;;;;4345220;32;20088;-70
2021/06/06 09:12:37;;;;;;;;;;;24.60;52.80;;;;;;4356160;32;20182;-68
2021/06/06 09:15:06;;;;;;;2.00;1.77;;;24.00;54.40;;;;;;4363671;32;19973;-69
2021/06/06 09:17:40;;;;;;;7.22;2.55;;;24.70;52.80;;;;;;4357774;32;20062;-69
2021/06/06 09:20:29;;;;;;;8.13;2.37;;;24.00;57.00;;;;;;4344506;32;20070;-69
2021/06/06 09:23:18;;;;;;;5.12;2.30;;;24.00;55.20;;;;;;4350197;32;20071;-67
2021/06/06 09:25:51;;;;;;;4.40;2.35;;;24.00;55.40;;;;;;4336681;32;20143;-70
2021/06/06 09:28:23;;;;;;;4.05;2.25;;;24.00;54.80;;;;;;4342620;32;20070;-70
2021/06/06 09:31:00;;;;;;;4.72;2.30;;;23.80;55.70;;;;;;4347264;32;20528;-68
2021/06/06 09:33:45;;;;;;;6.57;2.42;;;23.90;56.70;;;;;;4363615;32;20074;-67
2021/06/06 09:36:38;;;;;;;3.60;2.20;;;24.00;55.50;;;;;;4355300;32;20082;-68
2021/06/06 09:39:16;;;;;;;2.85;2.15;;;24.60;54.00;;;;;;4348979;32;20077;-69
2021/06/06 09:41:48;;;;;;;4.62;2.40;;;24.20;54.20;;;;;;4362586;32;20504;-68
2021/06/06 09:44:14;;;;;;;4.25;2.40;;;23.70;57.10;;;;;;4366663;32;20085;-69
2021/06/06 09:46:47;;;;;;;6.47;2.40;;;23.50;56.60;;;;;;4368777;32;20075;-68
2021/06/06 09:49:38;;;;;;;3.03;2.20;;;23.70;56.40;;;;;;4352006;32;20490;-69
2021/06/06 09:52:29;;;;;;;5.75;2.00;;;23.80;57.80;;;;;;4363463;32;20073;-70
2021/06/06 09:54:58;;;;;;;3.67;2.22;;;24.20;57.00;;;;;;4362458;32;20104;-69
2021/06/06 09:57:37;;;;;;;4.12;2.30;;;24.30;54.20;;;;;;4337139;32;20149;-68
2021/06/06 10:00:18;;;;;;;5.37;2.00;;;24.70;52.90;;;;;;4347989;32;20085;-70
2021/06/06 10:03:04;;;;;;;3.80;2.28;;;24.80;48.60;;;;;;4368072;32;20496;-71
2021/06/06 10:05:37;;;;;;;3.03;2.03;;;24.50;51.90;;;;;;4346063;32;20452;-71
2021/06/06 10:08:17;;;;;;;4.90;2.37;;;24.90;50.10;;;;;;4343751;32;20490;-70
2021/06/06 10:10:47;;;;;;;4.15;2.33;;;25.50;47.70;;;;;;4339978;32;20082;-70
2021/06/06 10:13:18;;;;;;;4.07;2.62;;;24.50;47.60;;;;;;4353180;32;20098;-70
2021/06/06 10:16:00;;;;;;;4.47;2.30;;;24.40;52.80;;;;;;4343267;32;20239;-69
2021/06/06 10:18:28;;;;;;;4.18;2.10;;;23.90;50.40;;;;;;4338642;32;20156;-68
2021/06/06 10:21:15;;;;;;;3.25;2.40;;;24.30;50.20;;;;;;4352871;32;20086;-70
2021/06/06 10:23:46;;;;;;;3.95;2.35;;;25.20;48.70;;;;;;4333899;32;20069;-70
2021/06/06 10:26:51;;;;;;;3.80;2.40;;;25.00;47.60;;;;;;4342490;32;20177;-70
2021/06/06 10:29:23;;;;;;;4.55;2.42;;;24.80;50.00;;;;;;4356002;32;20135;-70
2021/06/06 10:31:49;;;;;;;5.03;2.28;;;24.90;48.70;;;;;;4368748;32;20136;-68
2021/06/06 10:34:51;;;;;;;4.28;2.40;;;25.20;48.50;;;;;;4334375;32;20076;-68
2021/06/06 10:37:18;;;;;;;3.75;2.30;;;25.20;47.70;;;;;;4362862;32;20085;-71
2021/06/06 10:40:00;;;;;;;5.43;2.50;;;25.40;46.70;;;;;;4349974;32;20113;-69
2021/06/06 10:42:35;;;;;;;4.50;2.47;;;25.30;47.10;;;;;;4337202;32;20072;-68
2021/06/06 10:45:08;;;;;;;4.60;2.78;;;25.00;47.20;;;;;;4338459;32;20136;-70
2021/06/06 10:47:55;;;;;;;5.45;2.70;;;24.90;47.20;;;;;;4356932;32;20169;-69
2021/06/06 10:50:39;;;;;;;3.42;2.20;;;25.40;46.20;;;;;;4329651;32;20058;-68
2021/06/06 10:53:23;;;;;;;3.12;2.22;;;25.60;47.00;;;;;;4351090;32;20600;-69
2021/06/06 10:56:12;;;;;;;4.10;2.10;;;26.70;45.50;;;;;;4352702;32;20077;-70
2021/06/06 10:59:03;;;;;;;3.92;2.10;;;26.00;45.30;;;;;;4335373;32;20082;-70
2021/06/06 11:01:51;;;;;;;2.50;1.77;;;26.20;45.40;;;;;;4337774;32;20430;-70
2021/06/06 11:04:28;;;;;;;2.53;2.25;;;25.40;45.80;;;;;;4342629;32;20102;-70
2021/06/06 11:07:29;;;;;;;5.97;2.60;;;25.80;45.50;;;;;;4335370;32;20175;-70
2021/06/06 11:10:09;;;;;;;3.33;2.50;;;25.20;46.30;;;;;;4345704;32;20079;-69
2021/06/06 11:12:37;;;;;;;3.42;2.60;;;25.20;47.60;;;;;;4343160;32;20461;-70
2021/06/06 11:15:35;;;;;;;2.95;2.25;;;24.70;47.40;;;;;;4336094;32;20504;-69
2021/06/06 11:18:17;;;;;;;3.78;2.20;;;26.00;46.10;;;;;;4344325;32;20075;-70
2021/06/06 11:21:00;;;;;;;3.67;2.40;;;25.80;49.60;;;;;;4335450;32;20070;-69
2021/06/06 11:23:35;;;;;;;3.08;2.20;;;26.20;47.60;;;;;;4347195;32;20581;-70
2021/06/06 11:26:33;;;;;;;4.03;2.35;;;26.50;47.40;;;;;;4362373;32;20162;-68
2021/06/06 11:29:19;;;;;;;8.05;2.60;;;26.80;44.60;;;;;;4339151;32;20074;-69
2021/06/06 11:32:09;;;;;;;2.87;2.20;;;27.30;42.70;;;;;;4350940;32;20074;-69
2021/06/06 11:34:36;;;;;;;4.10;2.20;;;26.40;40.90;;;;;;4340301;32;20096;-70
2021/06/06 11:37:07;;;;;;;4.72;2.55;;;26.80;39.70;;;;;;4337103;32;20156;-70
2021/06/06 11:39:40;;;;;;;2.45;1.80;;;27.00;40.90;;;;;;4350313;32;20067;-69
2021/06/06 11:42:37;;;;;;;2.45;1.92;;;26.50;39.60;;;;;;4335953;32;20086;-69
2021/06/06 11:45:35;;;;;;;4.20;2.28;;;26.30;39.60;;;;;;4351478;32;20166;-68
2021/06/06 11:48:23;;;;;;;4.32;2.30;;;25.70;38.90;;;;;;4350941;32;20094;-69
2021/06/06 11:50:50;;;;;;;3.53;2.17;;;26.10;38.00;;;;;;4350148;32;20074;-70
2021/06/06 11:53:33;;;;;;;3.35;1.92;;;26.50;37.50;;;;;;4326607;32;20070;-68
2021/06/06 11:56:21;;;;;;;2.92;1.95;;;27.10;37.10;;;;;;4318556;32;20596;-70
2021/06/06 11:59:07;;;;;;;4.00;2.20;;;26.60;39.10;;;;;;4336306;32;20110;-70
2021/06/06 12:01:35;;;;;;;3.95;2.45;;;25.90;40.30;;;;;;4332346;32;20070;-68
2021/06/06 12:04:08;;;;;;;5.68;2.50;;;25.00;41.50;;;;;;4337190;32;20090;-70
2021/06/06 12:06:34;;;;;;;2.87;1.95;;;25.00;44.60;;;;;;4351115;32;20085;-69
2021/06/06 12:09:18;;;;;;;3.92;2.40;;;25.90;42.80;;;;;;4370271;32;20078;-69
2021/06/06 12:11:45;;;;;;;4.95;2.40;;;25.60;43.80;;;;;;4342185;32;20066;-70
2021/06/06 12:14:25;;;;;;;3.62;2.17;;;24.90;45.30;;;;;;4336606;32;20078;-70
2021/06/06 12:17:08;;;;;;;5.22;2.03;;;24.80;46.10;;;;;;4338554;32;20147;-69
2021/06/06 12:19:43;;;;;;;4.68;2.55;;;25.00;46.60;;;;;;4329193;32;20084;-70
2021/06/06 12:22:33;;;;;;;3.53;2.28;;;25.40;46.50;;;;;;4384011;32;20076;-71
2021/06/06 12:25:11;;;;;;;5.32;2.10;;;25.50;47.10;;;;;;4352347;32;20070;-70
2021/06/06 12:28:01;;;;;;;3.10;2.37;;;25.10;47.00;;;;;;4377420;32;20078;-70
2021/06/06 12:30:57;;;;;;;5.85;2.45;;;24.60;48.10;;;;;;4352219;32;20074;-70
2021/06/06 12:33:37;;;;;;;4.37;2.30;;;25.00;46.20;;;;;;4340459;32;20090;-69
2021/06/06 12:36:18;;;;;;;4.93;2.60;;;26.00;45.40;;;;;;4348644;33;20149;-70
2021/06/06 12:38:44;;;;;;;4.93;2.50;;;25.40;43.90;;;;;;4354059;33;20168;-71
2021/06/06 12:41:10;;;;;;;3.58;1.90;;;25.70;44.90;;;;;;4327176;33;20502;-70
2021/06/06 12:43:45;;;;;;;3.87;2.28;;;26.30;44.00;;;;;;4352386;33;20566;-69
2021/06/06 12:46:12;;;;;;;3.45;2.20;;;26.70;43.30;;;;;;4339753;32;20066;-71
2021/06/06 12:49:01;;;;;;;4.82;2.40;;;26.70;41.80;;;;;;4349497;33;20074;-70
2021/06/06 12:51:48;;;;;;;4.68;2.50;;;26.40;42.10;;;;;;4332754;33;20156;-70
2021/06/06 12:54:15;;;;;;;;;;;25.90;44.10;;;;;;4340785;33;20082;-70
2021/06/06 12:56:41;;;;;;;3.80;2.17;;;25.70;43.50;;;;;;4368198;32;19966;-70
2021/06/06 12:59:28;;;;;;;2.90;2.15;;;25.50;44.10;;;;;;4337674;32;20066;-69
2021/06/06 13:02:17;;;;;;;2.95;2.00;;;25.80;44.20;;;;;;4362314;32;20086;-70
2021/06/06 13:04:44;;;;;;;2.33;1.92;;;26.60;44.20;;;;;;4356534;32;20054;-70
2021/06/06 13:07:32;;;;;;;4.82;2.28;;;27.00;39.60;;;;;;4335764;32;20478;-72
2021/06/06 13:09:59;;;;;;;4.47;2.55;;;26.90;39.00;;;;;;4338926;33;20216;-70
2021/06/06 13:15:18;;;;;;;2.80;2.17;;;26.90;40.00;;;;;;3866083;37;20054;-69
2021/06/06 13:17:44;;;;;;;2.60;2.20;;;26.60;40.80;;;;;;4401777;32;20061;-72